createdAt,value
2022-11-27T00:01:27.590Z,8.20
2022-11-27T00:03:56.069Z,8.20
2022-11-27T00:06:25.823Z,8.20
2022-11-27T00:08:52.771Z,8.20
2022-11-27T00:11:23.351Z,8.30
2022-11-27T00:13:51.255Z,8.30
2022-11-27T00:16:20.039Z,8.30
2022-11-27T00:18:47.461Z,8.30
2022-11-27T00:21:24.106Z,8.20
2022-11-27T00:23:52.635Z,8.20
2022-11-27T00:26:21.307Z,8.30
2022-11-27T00:28:48.382Z,8.30
2022-11-27T00:31:28.436Z,8.20
2022-11-27T00:33:56.709Z,8.20
2022-11-27T00:36:23.751Z,8.20
2022-11-27T00:38:50.788Z,8.30
2022-11-27T00:41:23.235Z,8.20
2022-11-27T00:43:50.593Z,8.20
2022-11-27T00:46:27.872Z,8.20
2022-11-27T00:48:56.826Z,8.20
2022-11-27T00:51:24.500Z,8.20
2022-11-27T00:53:52.415Z,8.20
2022-11-27T00:56:25.197Z,8.30
2022-11-27T00:58:54.661Z,8.20
2022-11-27T01:01:25.521Z,8.20
2022-11-27T01:03:53.418Z,8.20
2022-11-27T01:06:20.971Z,8.20
2022-11-27T01:08:48.725Z,8.40
2022-11-27T01:11:18.923Z,8.20
2022-11-27T01:13:46.497Z,8.30
2022-11-27T01:16:17.324Z,8.30
2022-11-27T01:18:45.761Z,8.20
2022-11-27T01:21:13.981Z,8.30
2022-11-27T01:23:41.026Z,8.30
2022-11-27T01:26:10.209Z,8.20
2022-11-27T01:28:39.853Z,8.20
2022-11-27T01:31:12.852Z,8.20
2022-11-27T01:33:40.242Z,8.30
2022-11-27T01:36:08.886Z,8.30
2022-11-27T01:38:36.226Z,8.20
2022-11-27T01:41:07.577Z,8.20
2022-11-27T01:43:44.529Z,8.30
2022-11-27T01:46:24.042Z,8.20
2022-11-27T01:48:53.147Z,8.20
2022-11-27T01:51:22.230Z,8.20
2022-11-27T01:53:50.083Z,8.20
2022-11-27T01:56:17.630Z,8.20
2022-11-27T01:58:44.841Z,8.10
2022-11-27T02:01:11.786Z,8.10
2022-11-27T02:03:38.779Z,8.20
2022-11-27T02:06:05.877Z,8.10
2022-11-27T02:08:32.955Z,8.00
2022-11-27T02:11:40.509Z,8.00
2022-11-27T02:14:18.864Z,8.10
2022-11-27T02:16:58.064Z,8.10
2022-11-27T02:19:43.928Z,8.20
2022-11-27T02:22:17.921Z,8.20
2022-11-27T02:24:56.541Z,8.20
2022-11-27T02:27:32.494Z,8.20
2022-11-27T02:30:03.473Z,8.10
2022-11-27T02:33:01.233Z,8.20
2022-11-27T02:35:39.530Z,8.20
2022-11-27T02:38:16.016Z,8.20
2022-11-27T02:40:54.774Z,8.20
2022-11-27T02:43:29.667Z,8.20
2022-11-27T02:45:59.385Z,8.10
2022-11-27T02:48:33.237Z,8.20
2022-11-27T02:51:06.054Z,8.20
2022-11-27T02:53:45.826Z,8.10
2022-11-27T02:56:16.690Z,8.10
2022-11-27T02:58:46.366Z,8.00
2022-11-27T03:01:16.147Z,8.10
2022-11-27T03:03:46.734Z,7.90
2022-11-27T03:06:20.294Z,7.90
2022-11-27T03:08:50.052Z,7.90
2022-11-27T03:11:17.778Z,7.90
2022-11-27T03:13:48.027Z,7.80
2022-11-27T03:16:30.953Z,7.80
2022-11-27T03:19:17.353Z,7.80
2022-11-27T03:21:49.025Z,7.70
2022-11-27T03:24:16.332Z,7.60
2022-11-27T03:26:43.823Z,7.50
2022-11-27T03:29:20.217Z,7.50
2022-11-27T03:31:48.088Z,7.40
2022-11-27T03:34:16.330Z,7.40
2022-11-27T03:36:43.255Z,7.30
2022-11-27T03:39:10.361Z,7.30
2022-11-27T03:42:02.593Z,7.20
2022-11-27T03:45:01.526Z,7.10
2022-11-27T03:47:52.514Z,7.10
2022-11-27T03:50:26.426Z,7.00
2022-11-27T03:53:23.254Z,7.00
2022-11-27T03:55:57.494Z,7.00
2022-11-27T03:58:37.129Z,6.90
2022-11-27T04:01:07.928Z,6.80
2022-11-27T04:03:36.145Z,6.70
2022-11-27T04:06:03.574Z,6.70
2022-11-27T04:08:30.627Z,6.70
2022-11-27T04:10:59.955Z,6.80
2022-11-27T04:13:26.836Z,6.70
2022-11-27T04:15:53.835Z,6.70
2022-11-27T04:18:20.847Z,6.70
2022-11-27T04:20:47.813Z,6.70
2022-11-27T04:23:14.700Z,6.60
2022-11-27T04:25:41.616Z,6.60
2022-11-27T04:28:08.567Z,6.50
2022-11-27T04:30:35.607Z,6.50
2022-11-27T04:33:02.589Z,6.50
2022-11-27T04:35:29.515Z,6.40
2022-11-27T04:37:59.446Z,6.40
2022-11-27T04:40:26.508Z,6.40
2022-11-27T04:42:54.272Z,6.30
2022-11-27T04:45:21.202Z,6.30
2022-11-27T04:47:48.266Z,6.30
2022-11-27T04:50:15.182Z,6.30
2022-11-27T04:52:42.341Z,6.30
2022-11-27T04:55:09.795Z,6.20
2022-11-27T04:57:36.864Z,6.20
2022-11-27T05:00:04.990Z,6.10
2022-11-27T05:02:32.069Z,6.20
2022-11-27T05:04:59.136Z,6.20
2022-11-27T05:07:26.247Z,6.20
2022-11-27T05:09:53.182Z,6.10
2022-11-27T05:12:20.066Z,6.20
2022-11-27T05:14:46.911Z,6.20
2022-11-27T05:17:13.903Z,6.20
2022-11-27T05:19:40.751Z,6.10
2022-11-27T05:22:07.709Z,6.10
2022-11-27T05:24:34.619Z,6.10
2022-11-27T05:27:01.504Z,6.20
2022-11-27T05:29:28.439Z,6.20
2022-11-27T05:31:55.381Z,6.10
2022-11-27T05:34:22.462Z,6.10
2022-11-27T05:36:49.370Z,6.10
2022-11-27T05:39:17.070Z,6.00
2022-11-27T05:41:44.091Z,6.10
2022-11-27T05:44:15.166Z,6.10
2022-11-27T05:46:45.934Z,6.10
2022-11-27T05:49:14.631Z,6.10
2022-11-27T05:51:46.370Z,6.00
2022-11-27T05:54:17.825Z,5.90
2022-11-27T05:56:44.763Z,5.90
2022-11-27T05:59:12.693Z,5.90
2022-11-27T06:01:39.854Z,5.90
2022-11-27T06:04:06.829Z,5.90
2022-11-27T06:06:33.780Z,5.80
2022-11-27T06:09:00.848Z,5.90
2022-11-27T06:11:27.842Z,5.90
2022-11-27T06:13:59.873Z,5.80
2022-11-27T06:16:27.023Z,5.80
2022-11-27T06:18:55.613Z,5.80
2022-11-27T06:21:24.258Z,5.70
2022-11-27T06:23:55.630Z,5.60
2022-11-27T06:26:29.198Z,5.60
2022-11-27T06:29:01.200Z,5.60
2022-11-27T06:31:33.203Z,5.50
2022-11-27T06:34:01.645Z,5.60
2022-11-27T06:36:34.955Z,5.70
2022-11-27T06:39:06.594Z,5.70
2022-11-27T06:41:34.083Z,5.60
2022-11-27T06:44:04.600Z,5.70
2022-11-27T06:46:47.856Z,5.60
2022-11-27T06:49:14.996Z,5.60
2022-11-27T06:51:44.931Z,5.60
2022-11-27T06:54:16.583Z,5.60
2022-11-27T06:56:43.714Z,5.70
2022-11-27T06:59:17.573Z,5.70
2022-11-27T07:01:50.442Z,5.60
2022-11-27T07:04:20.647Z,5.50
2022-11-27T07:06:55.733Z,5.40
2022-11-27T07:09:24.617Z,5.50
2022-11-27T07:11:54.374Z,5.40
2022-11-27T07:14:21.497Z,5.40
2022-11-27T07:16:51.680Z,5.50
2022-11-27T07:19:18.798Z,5.40
2022-11-27T07:21:45.747Z,5.40
2022-11-27T07:24:12.638Z,5.50
2022-11-27T07:26:39.952Z,5.50
2022-11-27T07:29:06.922Z,5.50
2022-11-27T07:31:33.818Z,5.40
2022-11-27T07:34:00.797Z,5.40
2022-11-27T07:36:30.165Z,5.60
2022-11-27T07:38:58.222Z,5.40
2022-11-27T07:41:30.599Z,5.40
2022-11-27T07:44:00.569Z,5.40
2022-11-27T07:46:27.740Z,5.50
2022-11-27T07:48:54.683Z,5.50
2022-11-27T07:51:22.791Z,5.50
2022-11-27T07:53:51.955Z,5.50
2022-11-27T07:56:19.914Z,5.50
2022-11-27T07:58:47.212Z,5.60
2022-11-27T08:01:17.162Z,5.50
2022-11-27T08:03:44.540Z,5.50
2022-11-27T08:06:16.513Z,5.60
2022-11-27T08:08:43.964Z,5.60
2022-11-27T08:11:32.399Z,5.50
2022-11-27T08:14:01.697Z,5.50
2022-11-27T08:16:29.680Z,5.50
2022-11-27T08:18:56.858Z,5.40
2022-11-27T08:21:24.079Z,5.50
2022-11-27T08:23:51.376Z,5.50
2022-11-27T08:26:18.829Z,5.50
2022-11-27T08:28:45.992Z,5.30
2022-11-27T08:31:14.400Z,5.30
2022-11-27T08:33:41.599Z,5.30
2022-11-27T08:36:13.721Z,5.20
2022-11-27T08:38:44.438Z,5.20
2022-11-27T08:41:11.424Z,5.20
2022-11-27T08:43:38.334Z,5.30
2022-11-27T08:46:07.268Z,5.40
2022-11-27T08:48:34.840Z,5.60
2022-11-27T08:51:09.911Z,5.70
2022-11-27T08:53:37.732Z,5.60
2022-11-27T08:56:15.208Z,5.70
2022-11-27T08:58:43.093Z,5.80
2022-11-27T09:01:14.371Z,5.80
2022-11-27T09:03:41.615Z,5.70
2022-11-27T09:06:14.988Z,5.70
2022-11-27T09:08:47.339Z,5.60
2022-11-27T09:11:18.373Z,5.70
2022-11-27T09:13:51.775Z,5.70
2022-11-27T09:16:24.213Z,5.50
2022-11-27T09:18:52.953Z,5.50
2022-11-27T09:21:27.708Z,5.60
2022-11-27T09:23:59.554Z,5.60
2022-11-27T09:26:28.521Z,5.60
2022-11-27T09:28:57.615Z,5.60
2022-11-27T09:31:24.751Z,5.70
2022-11-27T09:33:51.805Z,5.70
2022-11-27T09:36:24.207Z,5.70
2022-11-27T09:38:55.252Z,5.70
2022-11-27T09:41:41.185Z,5.60
2022-11-27T09:44:10.783Z,5.80
2022-11-27T09:46:41.216Z,5.80
2022-11-27T09:49:16.055Z,5.90
2022-11-27T09:51:48.446Z,5.90
2022-11-27T09:54:35.049Z,5.90
2022-11-27T09:57:02.792Z,6.10
2022-11-27T09:59:50.713Z,6.30
2022-11-27T10:02:45.300Z,6.40
2022-11-27T10:05:21.638Z,6.20
2022-11-27T10:08:06.668Z,6.40
2022-11-27T10:11:00.356Z,6.60
2022-11-27T10:14:05.783Z,6.90
2022-11-27T10:16:44.479Z,6.90
2022-11-27T10:19:26.983Z,6.80
2022-11-27T10:22:21.834Z,6.60
2022-11-27T10:25:15.939Z,6.50
2022-11-27T10:28:10.599Z,6.60
2022-11-27T10:30:52.623Z,6.50
2022-11-27T10:33:53.434Z,6.70
2022-11-27T10:36:48.439Z,6.90
2022-11-27T10:39:43.967Z,7.00
2022-11-27T10:42:24.180Z,7.00
2022-11-27T10:45:01.886Z,6.90
2022-11-27T10:47:33.488Z,6.80
2022-11-27T10:50:00.961Z,6.70
2022-11-27T10:52:27.953Z,6.70
2022-11-27T10:55:03.469Z,6.70
2022-11-27T10:57:50.268Z,6.70
2022-11-27T11:00:30.286Z,6.70
2022-11-27T11:03:02.694Z,6.80
2022-11-27T11:05:56.823Z,6.90
2022-11-27T11:08:22.360Z,6.70
2022-11-27T11:11:01.575Z,6.70
2022-11-27T11:13:31.292Z,6.80
2022-11-27T11:16:06.054Z,6.70
2022-11-27T11:18:41.480Z,6.70
2022-11-27T11:21:38.706Z,6.70
2022-11-27T11:24:12.988Z,6.70
2022-11-27T11:26:59.918Z,6.80
2022-11-27T11:29:34.584Z,6.80
2022-11-27T11:32:13.184Z,6.70
2022-11-27T11:34:46.721Z,6.70
2022-11-27T11:37:49.691Z,6.80
2022-11-27T11:40:25.848Z,6.80
2022-11-27T11:43:16.355Z,6.80
2022-11-27T11:45:48.941Z,6.90
2022-11-27T11:48:29.028Z,6.70
2022-11-27T11:51:08.758Z,6.80
2022-11-27T11:53:42.494Z,6.80
2022-11-27T11:56:22.315Z,6.80
2022-11-27T11:59:01.970Z,6.90
2022-11-27T12:01:59.832Z,6.90
2022-11-27T12:04:50.149Z,6.90
2022-11-27T12:07:29.303Z,6.90
2022-11-27T12:10:07.592Z,6.80
2022-11-27T12:13:04.223Z,6.90
2022-11-27T12:15:34.192Z,6.80
2022-11-27T12:18:15.096Z,6.70
2022-11-27T12:21:23.772Z,6.70
2022-11-27T12:24:02.195Z,6.70
2022-11-27T12:26:38.122Z,6.70
2022-11-27T12:29:37.588Z,6.70
2022-11-27T12:32:21.890Z,6.80
2022-11-27T12:35:32.349Z,6.60
2022-11-27T12:38:26.096Z,6.70
2022-11-27T12:41:13.972Z,6.70
2022-11-27T12:44:00.140Z,6.70
2022-11-27T12:47:08.862Z,6.70
2022-11-27T12:50:27.355Z,6.60
2022-11-27T12:53:16.765Z,6.60
2022-11-27T12:55:59.068Z,6.50
2022-11-27T12:58:31.758Z,6.50
2022-11-27T13:01:07.656Z,6.50
2022-11-27T13:04:07.045Z,6.40
2022-11-27T13:06:43.425Z,6.40
2022-11-27T13:09:21.500Z,6.50
2022-11-27T13:11:48.533Z,6.50
2022-11-27T13:14:46.455Z,6.50
2022-11-27T13:17:20.268Z,6.60
2022-11-27T13:19:50.320Z,6.50
2022-11-27T13:22:28.593Z,6.50
2022-11-27T13:25:11.952Z,6.50
2022-11-27T13:27:39.321Z,6.50
2022-11-27T13:30:08.945Z,6.60
2022-11-27T13:32:47.848Z,6.60
2022-11-27T13:35:37.861Z,6.60
2022-11-27T13:38:27.170Z,6.60
2022-11-27T13:40:58.648Z,6.60
2022-11-27T13:43:33.433Z,6.70
2022-11-27T13:46:12.984Z,6.60
2022-11-27T13:48:53.465Z,6.60
2022-11-27T13:51:30.222Z,6.60
2022-11-27T13:54:28.912Z,6.50
2022-11-27T13:56:56.222Z,6.50
2022-11-27T13:59:25.276Z,6.50
2022-11-27T14:02:01.179Z,6.50
2022-11-27T14:04:31.165Z,6.40
2022-11-27T14:07:11.728Z,6.40
2022-11-27T14:09:55.821Z,6.40
2022-11-27T14:12:29.454Z,6.40
2022-11-27T14:15:08.261Z,6.40
2022-11-27T14:17:44.666Z,6.30
2022-11-27T14:20:26.838Z,6.30
2022-11-27T14:23:14.467Z,6.30
2022-11-27T14:25:49.041Z,6.40
2022-11-27T14:28:19.623Z,6.40
2022-11-27T14:30:53.900Z,6.40
2022-11-27T14:33:25.733Z,6.40
2022-11-27T14:35:55.503Z,6.30
2022-11-27T14:38:26.959Z,6.30
2022-11-27T14:40:55.099Z,6.20
2022-11-27T14:43:30.376Z,6.20
2022-11-27T14:46:01.820Z,6.20
2022-11-27T14:48:49.245Z,6.20
2022-11-27T14:51:21.461Z,6.20
2022-11-27T14:53:52.056Z,6.20
2022-11-27T14:56:21.896Z,6.20
2022-11-27T14:58:52.896Z,6.20
2022-11-27T15:01:31.928Z,6.30
2022-11-27T15:04:10.032Z,6.20
2022-11-27T15:06:50.510Z,6.10
2022-11-27T15:09:32.510Z,6.00
2022-11-27T15:12:09.135Z,6.00
2022-11-27T15:14:36.402Z,6.00
2022-11-27T15:17:11.458Z,6.00
2022-11-27T15:19:38.477Z,6.00
2022-11-27T15:22:05.591Z,6.00
2022-11-27T15:24:37.582Z,6.00
2022-11-27T15:27:22.903Z,6.00
2022-11-27T15:29:49.659Z,6.10
2022-11-27T15:32:23.147Z,6.10
2022-11-27T15:34:54.382Z,6.10
2022-11-27T15:37:28.396Z,6.10
2022-11-27T15:39:56.462Z,6.00
2022-11-27T15:42:24.403Z,6.00
2022-11-27T15:44:57.621Z,6.10
2022-11-27T15:47:28.914Z,6.10
2022-11-27T15:49:59.426Z,6.10
2022-11-27T15:52:26.996Z,6.20
2022-11-27T15:55:05.525Z,6.10
2022-11-27T15:57:41.810Z,6.10
2022-11-27T16:00:10.140Z,6.10
2022-11-27T16:02:37.635Z,6.10
2022-11-27T16:05:06.280Z,6.10
2022-11-27T16:07:33.270Z,6.10
2022-11-27T16:10:00.564Z,6.10
2022-11-27T16:12:27.539Z,6.00
2022-11-27T16:14:54.443Z,6.00
2022-11-27T16:17:21.528Z,5.90
2022-11-27T16:19:48.475Z,5.90
2022-11-27T16:22:15.334Z,6.00
2022-11-27T16:24:42.530Z,6.00
2022-11-27T16:27:09.745Z,6.00
2022-11-27T16:29:36.592Z,6.10
2022-11-27T16:32:03.867Z,6.10
2022-11-27T16:34:30.824Z,6.10
2022-11-27T16:36:57.711Z,6.10
2022-11-27T16:39:24.595Z,6.10
2022-11-27T16:41:51.700Z,6.00
2022-11-27T16:44:18.682Z,6.00
2022-11-27T16:46:47.908Z,6.00
2022-11-27T16:49:14.834Z,6.00
2022-11-27T16:51:43.166Z,5.90
2022-11-27T16:54:12.261Z,5.90
2022-11-27T16:56:39.163Z,6.00
2022-11-27T16:59:11.080Z,6.10
2022-11-27T17:01:42.387Z,6.00
2022-11-27T17:04:15.485Z,5.90
2022-11-27T17:06:42.508Z,5.90
2022-11-27T17:09:09.567Z,5.90
2022-11-27T17:11:38.142Z,5.90
2022-11-27T17:14:07.766Z,6.00
2022-11-27T17:16:35.418Z,5.90
2022-11-27T17:19:04.805Z,5.90
2022-11-27T17:21:36.962Z,6.00
2022-11-27T17:24:14.734Z,5.90
2022-11-27T17:26:43.705Z,5.90
2022-11-27T17:29:13.389Z,5.90
2022-11-27T17:31:42.826Z,6.00
2022-11-27T17:34:14.928Z,6.00
2022-11-27T17:36:44.079Z,5.90
2022-11-27T17:39:12.816Z,5.80
2022-11-27T17:41:40.980Z,5.90
2022-11-27T17:44:08.410Z,5.90
2022-11-27T17:46:36.271Z,5.90
2022-11-27T17:49:04.893Z,5.90
2022-11-27T17:51:33.191Z,5.90
2022-11-27T17:54:01.512Z,6.00
2022-11-27T17:56:29.275Z,5.90
2022-11-27T17:58:59.435Z,6.00
2022-11-27T18:01:29.150Z,5.90
2022-11-27T18:04:01.074Z,5.80
2022-11-27T18:06:31.546Z,5.80
2022-11-27T18:08:59.836Z,5.80
2022-11-27T18:11:29.469Z,5.80
2022-11-27T18:13:57.905Z,5.80
2022-11-27T18:16:44.942Z,5.80
2022-11-27T18:19:12.338Z,5.90
2022-11-27T18:21:39.564Z,6.00
2022-11-27T18:24:24.437Z,5.90
2022-11-27T18:27:08.312Z,5.80
2022-11-27T18:29:37.565Z,5.80
2022-11-27T18:32:04.756Z,5.90
2022-11-27T18:34:32.017Z,5.80
2022-11-27T18:37:01.020Z,5.80
2022-11-27T18:39:28.410Z,5.80
2022-11-27T18:41:55.454Z,5.80
2022-11-27T18:44:22.542Z,5.80
2022-11-27T18:46:51.883Z,5.90
2022-11-27T18:49:18.891Z,5.90
2022-11-27T18:51:45.924Z,5.90
2022-11-27T18:54:12.860Z,5.80
2022-11-27T18:56:39.731Z,5.90
2022-11-27T18:59:10.091Z,5.90
2022-11-27T19:01:42.043Z,5.90
2022-11-27T19:04:10.799Z,6.00
2022-11-27T19:06:39.088Z,6.00
2022-11-27T19:09:09.946Z,5.90
2022-11-27T19:11:37.690Z,5.90
2022-11-27T19:14:06.205Z,5.90
2022-11-27T19:16:36.327Z,6.00
2022-11-27T19:19:04.977Z,6.00
2022-11-27T19:21:35.732Z,5.90
2022-11-27T19:24:05.585Z,5.90
2022-11-27T19:26:37.108Z,5.90
2022-11-27T19:29:10.474Z,6.00
2022-11-27T19:31:40.264Z,5.90
2022-11-27T19:34:08.328Z,5.90
2022-11-27T19:36:36.284Z,5.90
2022-11-27T19:39:09.237Z,6.00
2022-11-27T19:41:36.229Z,6.00
2022-11-27T19:44:06.159Z,6.10
2022-11-27T19:46:35.714Z,6.10
2022-11-27T19:49:08.410Z,6.10
2022-11-27T19:51:39.034Z,6.10
2022-11-27T19:54:10.403Z,6.10
2022-11-27T19:56:40.074Z,6.10
2022-11-27T19:59:08.054Z,6.10
2022-11-27T20:01:35.470Z,6.10
2022-11-27T20:04:04.989Z,6.20
2022-11-27T20:06:32.334Z,6.20
2022-11-27T20:09:02.811Z,6.10
2022-11-27T20:11:35.013Z,6.10
2022-11-27T20:14:04.405Z,6.10
2022-11-27T20:16:32.231Z,6.10
2022-11-27T20:18:59.321Z,6.20
2022-11-27T20:21:26.613Z,6.20
2022-11-27T20:23:55.143Z,6.20
2022-11-27T20:26:26.018Z,6.10
2022-11-27T20:28:56.743Z,6.10
2022-11-27T20:31:31.831Z,6.10
2022-11-27T20:34:01.869Z,6.10
2022-11-27T20:36:31.306Z,6.20
2022-11-27T20:39:01.852Z,6.10
2022-11-27T20:41:31.756Z,6.10
2022-11-27T20:44:01.176Z,6.10
2022-11-27T20:46:28.726Z,6.10
2022-11-27T20:48:57.629Z,6.10
2022-11-27T20:51:36.419Z,6.10
2022-11-27T20:54:03.755Z,6.10
2022-11-27T20:56:31.326Z,6.10
2022-11-27T20:58:58.782Z,6.20
2022-11-27T21:01:31.961Z,6.10
2022-11-27T21:04:04.222Z,6.10
2022-11-27T21:06:32.441Z,6.10
2022-11-27T21:09:04.664Z,6.10
2022-11-27T21:11:34.850Z,6.20
2022-11-27T21:14:07.607Z,6.10
2022-11-27T21:16:37.751Z,6.10
2022-11-27T21:19:07.416Z,6.10
2022-11-27T21:21:34.908Z,6.20
2022-11-27T21:24:01.921Z,6.20
2022-11-27T21:26:29.136Z,6.20
2022-11-27T21:28:56.045Z,6.20
2022-11-27T21:31:25.053Z,6.20
2022-11-27T21:33:54.500Z,6.20
2022-11-27T21:36:23.249Z,6.20
2022-11-27T21:38:50.195Z,6.20
2022-11-27T21:41:17.857Z,6.20
2022-11-27T21:43:45.989Z,6.20
2022-11-27T21:46:17.302Z,6.30
2022-11-27T21:48:45.741Z,6.20
2022-11-27T21:51:15.310Z,6.20
2022-11-27T21:53:46.969Z,6.30
2022-11-27T21:56:16.118Z,6.30
2022-11-27T21:58:43.838Z,6.20
2022-11-27T22:01:13.608Z,6.20
2022-11-27T22:03:42.830Z,6.20
2022-11-27T22:06:12.968Z,6.10
2022-11-27T22:08:41.240Z,6.20
2022-11-27T22:11:20.755Z,6.20
2022-11-27T22:13:48.276Z,6.20
2022-11-27T22:16:18.197Z,6.10
2022-11-27T22:18:45.892Z,6.20
2022-11-27T22:21:14.143Z,6.20
2022-11-27T22:23:41.338Z,6.20
2022-11-27T22:26:13.896Z,6.20
2022-11-27T22:28:41.254Z,6.20
2022-11-27T22:31:13.294Z,6.20
2022-11-27T22:33:41.449Z,6.20
2022-11-27T22:36:21.922Z,6.30
2022-11-27T22:38:51.214Z,6.20
2022-11-27T22:41:19.465Z,6.30
2022-11-27T22:43:46.545Z,6.20
2022-11-27T22:46:17.248Z,6.20
2022-11-27T22:48:44.416Z,6.20
2022-11-27T22:51:13.929Z,6.20
2022-11-27T22:53:41.106Z,6.30
2022-11-27T22:56:12.757Z,6.20
2022-11-27T22:58:41.848Z,6.30
2022-11-27T23:01:24.498Z,6.30
2022-11-27T23:03:52.053Z,6.30
2022-11-27T23:06:21.483Z,6.20
2022-11-27T23:08:49.213Z,6.30
2022-11-27T23:11:22.710Z,6.40
2022-11-27T23:13:50.224Z,6.40
2022-11-27T23:16:18.422Z,6.40
2022-11-27T23:18:46.020Z,6.40
2022-11-27T23:21:15.638Z,6.30
2022-11-27T23:23:43.379Z,6.30
2022-11-27T23:26:17.886Z,6.40
2022-11-27T23:28:45.903Z,6.40
2022-11-27T23:31:29.574Z,6.40
2022-11-27T23:33:57.209Z,6.40
2022-11-27T23:36:24.446Z,6.40
2022-11-27T23:38:51.418Z,6.40
2022-11-27T23:41:20.638Z,6.30
2022-11-27T23:43:48.089Z,6.40
2022-11-27T23:46:17.018Z,6.30
2022-11-27T23:48:44.745Z,6.40
2022-11-27T23:51:18.196Z,6.40
2022-11-27T23:53:45.727Z,6.30
2022-11-27T23:56:15.921Z,6.40
2022-11-27T23:58:46.964Z,6.40
